sensor_id;sensor_type;location;lat;lon;timestamp;temperature;humidity
16810;DHT22;51744;50.872;4.730;2023-03-24T00:00:59;12.40;99.90
16810;DHT22;51744;50.872;4.730;2023-03-24T00:03:47;12.40;99.90
16810;DHT22;51744;50.872;4.730;2023-03-24T00:06:37;12.50;99.90
16810;DHT22;51744;50.872;4.730;2023-03-24T00:09:24;12.50;99.90
16810;DHT22;51744;50.872;4.730;2023-03-24T00:12:12;12.50;99.90
16810;DHT22;51744;50.872;4.730;2023-03-24T00:15:05;12.60;99.90
16810;DHT22;51744;50.872;4.730;2023-03-24T00:17:54;12.50;99.90
16810;DHT22;51744;50.872;4.730;2023-03-24T00:20:44;12.50;99.90
16810;DHT22;51744;50.872;4.730;2023-03-24T00:23:32;12.50;99.90
16810;DHT22;51744;50.872;4.730;2023-03-24T00:26:20;12.50;99.90
16810;DHT22;51744;50.872;4.730;2023-03-24T00:29:09;12.50;99.90
16810;DHT22;51744;50.872;4.730;2023-03-24T00:31:58;12.50;99.90
16810;DHT22;51744;50.872;4.730;2023-03-24T00:34:48;12.60;99.90
16810;DHT22;51744;50.872;4.730;2023-03-24T00:37:37;12.60;99.90
16810;DHT22;51744;50.872;4.730;2023-03-24T00:40:24;12.60;99.90
16810;DHT22;51744;50.872;4.730;2023-03-24T00:43:13;12.60;99.90
16810;DHT22;51744;50.872;4.730;2023-03-24T00:46:02;12.70;99.90
16810;DHT22;51744;50.872;4.730;2023-03-24T00:48:52;12.70;99.90
16810;DHT22;51744;50.872;4.730;2023-03-24T00:51:48;12.70;99.90
16810;DHT22;51744;50.872;4.730;2023-03-24T00:54:38;12.70;99.90
16810;DHT22;51744;50.872;4.730;2023-03-24T00:57:26;12.80;99.90
16810;DHT22;51744;50.872;4.730;2023-03-24T01:00:16;12.80;99.90
16810;DHT22;51744;50.872;4.730;2023-03-24T01:03:05;12.80;99.90
16810;DHT22;51744;50.872;4.730;2023-03-24T01:05:53;12.80;99.90
16810;DHT22;51744;50.872;4.730;2023-03-24T01:08:44;12.80;99.90
16810;DHT22;51744;50.872;4.730;2023-03-24T01:11:35;12.80;99.90
16810;DHT22;51744;50.872;4.730;2023-03-24T01:14:24;12.80;99.90
16810;DHT22;51744;50.872;4.730;2023-03-24T01:17:12;12.80;99.90
16810;DHT22;51744;50.872;4.730;2023-03-24T01:20:00;12.80;99.90
16810;DHT22;51744;50.872;4.730;2023-03-24T01:22:52;12.90;99.90
16810;DHT22;51744;50.872;4.730;2023-03-24T01:25:41;12.90;99.90
16810;DHT22;51744;50.872;4.730;2023-03-24T01:28:29;12.90;99.90
16810;DHT22;51744;50.872;4.730;2023-03-24T01:31:17;13.00;99.90
16810;DHT22;51744;50.872;4.730;2023-03-24T01:34:04;13.10;99.90
16810;DHT22;51744;50.872;4.730;2023-03-24T01:36:52;13.20;99.90
16810;DHT22;51744;50.872;4.730;2023-03-24T01:39:39;13.20;99.90
16810;DHT22;51744;50.872;4.730;2023-03-24T01:42:28;13.30;99.90
16810;DHT22;51744;50.872;4.730;2023-03-24T01:45:43;13.30;99.90
16810;DHT22;51744;50.872;4.730;2023-03-24T01:48:34;13.40;99.90
16810;DHT22;51744;50.872;4.730;2023-03-24T01:51:25;13.40;99.90
16810;DHT22;51744;50.872;4.730;2023-03-24T01:54:16;13.50;99.90
16810;DHT22;51744;50.872;4.730;2023-03-24T01:57:08;13.50;99.90
16810;DHT22;51744;50.872;4.730;2023-03-24T02:00:00;13.50;99.90
16810;DHT22;51744;50.872;4.730;2023-03-24T02:03:04;13.50;99.90
16810;DHT22;51744;50.872;4.730;2023-03-24T02:06:00;13.50;99.90
16810;DHT22;51744;50.872;4.730;2023-03-24T02:08:51;13.50;99.90
16810;DHT22;51744;50.872;4.730;2023-03-24T02:11:40;13.50;99.90
16810;DHT22;51744;50.872;4.730;2023-03-24T02:14:29;13.50;99.90
16810;DHT22;51744;50.872;4.730;2023-03-24T02:17:32;13.40;99.90
16810;DHT22;51744;50.872;4.730;2023-03-24T02:24:06;13.30;99.90
16810;DHT22;51744;50.872;4.730;2023-03-24T02:27:03;13.20;99.90
16810;DHT22;51744;50.872;4.730;2023-03-24T02:30:17;13.20;99.90
16810;DHT22;51744;50.872;4.730;2023-03-24T02:37:16;13.20;99.90
16810;DHT22;51744;50.872;4.730;2023-03-24T02:43:28;13.10;99.90
16810;DHT22;51744;50.872;4.730;2023-03-24T02:46:23;13.10;99.90
16810;DHT22;51744;50.872;4.730;2023-03-24T02:49:20;13.10;99.90
16810;DHT22;51744;50.872;4.730;2023-03-24T02:52:17;13.20;99.90
16810;DHT22;51744;50.872;4.730;2023-03-24T02:55:15;13.10;99.90
16810;DHT22;51744;50.872;4.730;2023-03-24T02:58:06;12.90;99.90
16810;DHT22;51744;50.872;4.730;2023-03-24T03:01:08;12.90;99.90
16810;DHT22;51744;50.872;4.730;2023-03-24T03:04:33;12.80;99.90
16810;DHT22;51744;50.872;4.730;2023-03-24T03:07:24;12.70;99.90
16810;DHT22;51744;50.872;4.730;2023-03-24T03:10:19;12.60;99.90
16810;DHT22;51744;50.872;4.730;2023-03-24T03:13:14;12.50;99.90
16810;DHT22;51744;50.872;4.730;2023-03-24T03:16:06;12.20;99.90
16810;DHT22;51744;50.872;4.730;2023-03-24T03:18:57;12.10;99.90
16810;DHT22;51744;50.872;4.730;2023-03-24T03:21:47;12.00;99.90
16810;DHT22;51744;50.872;4.730;2023-03-24T03:24:38;11.90;99.90
16810;DHT22;51744;50.872;4.730;2023-03-24T03:27:29;11.90;99.90
16810;DHT22;51744;50.872;4.730;2023-03-24T03:30:27;11.90;99.90
16810;DHT22;51744;50.872;4.730;2023-03-24T03:33:18;11.90;99.90
16810;DHT22;51744;50.872;4.730;2023-03-24T03:36:15;11.80;99.90
16810;DHT22;51744;50.872;4.730;2023-03-24T03:39:10;11.70;99.90
16810;DHT22;51744;50.872;4.730;2023-03-24T03:42:02;11.70;99.90
16810;DHT22;51744;50.872;4.730;2023-03-24T03:44:53;11.60;99.90
16810;DHT22;51744;50.872;4.730;2023-03-24T03:47:41;11.60;99.90
16810;DHT22;51744;50.872;4.730;2023-03-24T03:50:28;11.60;99.90
16810;DHT22;51744;50.872;4.730;2023-03-24T03:53:23;11.60;99.90
16810;DHT22;51744;50.872;4.730;2023-03-24T03:56:14;11.40;99.90
16810;DHT22;51744;50.872;4.730;2023-03-24T03:59:24;11.40;99.90
16810;DHT22;51744;50.872;4.730;2023-03-24T04:02:26;11.30;99.90
16810;DHT22;51744;50.872;4.730;2023-03-24T04:05:28;11.20;99.90
16810;DHT22;51744;50.872;4.730;2023-03-24T04:08:30;11.20;99.90
16810;DHT22;51744;50.872;4.730;2023-03-24T04:11:55;11.10;99.90
16810;DHT22;51744;50.872;4.730;2023-03-24T04:15:33;11.10;99.90
16810;DHT22;51744;50.872;4.730;2023-03-24T04:19:00;11.10;99.90
16810;DHT22;51744;50.872;4.730;2023-03-24T04:22:02;11.20;99.90
16810;DHT22;51744;50.872;4.730;2023-03-24T04:24:56;11.20;99.90
16810;DHT22;51744;50.872;4.730;2023-03-24T04:27:54;11.30;99.90
16810;DHT22;51744;50.872;4.730;2023-03-24T04:30:49;11.20;99.90
16810;DHT22;51744;50.872;4.730;2023-03-24T04:33:46;11.20;99.90
16810;DHT22;51744;50.872;4.730;2023-03-24T04:36:41;11.20;99.90
16810;DHT22;51744;50.872;4.730;2023-03-24T04:39:51;11.20;99.90
16810;DHT22;51744;50.872;4.730;2023-03-24T04:42:47;11.20;99.90
16810;DHT22;51744;50.872;4.730;2023-03-24T04:45:40;11.20;99.90
16810;DHT22;51744;50.872;4.730;2023-03-24T04:49:01;11.20;99.90
16810;DHT22;51744;50.872;4.730;2023-03-24T04:51:54;11.20;99.90
16810;DHT22;51744;50.872;4.730;2023-03-24T04:54:45;11.10;99.90
16810;DHT22;51744;50.872;4.730;2023-03-24T04:57:33;11.10;99.90
16810;DHT22;51744;50.872;4.730;2023-03-24T05:00:23;11.10;99.90
16810;DHT22;51744;50.872;4.730;2023-03-24T05:03:11;11.10;99.90
16810;DHT22;51744;50.872;4.730;2023-03-24T05:05:59;11.10;99.90
16810;DHT22;51744;50.872;4.730;2023-03-24T05:08:47;11.10;99.90
16810;DHT22;51744;50.872;4.730;2023-03-24T05:11:34;11.10;99.90
16810;DHT22;51744;50.872;4.730;2023-03-24T05:14:25;11.10;99.90
16810;DHT22;51744;50.872;4.730;2023-03-24T05:17:13;11.10;99.90
16810;DHT22;51744;50.872;4.730;2023-03-24T05:20:00;11.10;99.90
16810;DHT22;51744;50.872;4.730;2023-03-24T05:22:47;11.00;99.90
16810;DHT22;51744;50.872;4.730;2023-03-24T05:25:35;11.00;99.90
16810;DHT22;51744;50.872;4.730;2023-03-24T05:28:23;10.90;99.90
16810;DHT22;51744;50.872;4.730;2023-03-24T05:31:12;10.90;99.90
16810;DHT22;51744;50.872;4.730;2023-03-24T05:34:04;10.80;99.90
16810;DHT22;51744;50.872;4.730;2023-03-24T05:37:01;10.80;99.90
16810;DHT22;51744;50.872;4.730;2023-03-24T05:39:49;10.90;99.90
16810;DHT22;51744;50.872;4.730;2023-03-24T05:43:00;10.80;99.90
16810;DHT22;51744;50.872;4.730;2023-03-24T05:45:52;10.80;99.90
16810;DHT22;51744;50.872;4.730;2023-03-24T05:48:47;10.80;99.90
16810;DHT22;51744;50.872;4.730;2023-03-24T05:51:37;10.70;99.90
16810;DHT22;51744;50.872;4.730;2023-03-24T05:54:25;10.70;99.90
16810;DHT22;51744;50.872;4.730;2023-03-24T05:57:22;10.70;99.90
16810;DHT22;51744;50.872;4.730;2023-03-24T06:00:30;10.70;99.90
16810;DHT22;51744;50.872;4.730;2023-03-24T06:03:26;10.60;99.90
16810;DHT22;51744;50.872;4.730;2023-03-24T06:06:25;10.60;99.90
16810;DHT22;51744;50.872;4.730;2023-03-24T06:09:13;10.50;99.90
16810;DHT22;51744;50.872;4.730;2023-03-24T06:12:03;10.50;99.90
16810;DHT22;51744;50.872;4.730;2023-03-24T06:14:54;10.40;99.90
16810;DHT22;51744;50.872;4.730;2023-03-24T06:17:42;10.40;99.90
16810;DHT22;51744;50.872;4.730;2023-03-24T06:20:43;10.40;99.90
16810;DHT22;51744;50.872;4.730;2023-03-24T06:23:37;10.40;99.90
16810;DHT22;51744;50.872;4.730;2023-03-24T06:26:27;10.40;99.90
16810;DHT22;51744;50.872;4.730;2023-03-24T06:29:17;10.40;99.90
16810;DHT22;51744;50.872;4.730;2023-03-24T06:32:04;10.40;99.90
16810;DHT22;51744;50.872;4.730;2023-03-24T06:35:00;10.40;99.90
16810;DHT22;51744;50.872;4.730;2023-03-24T06:37:58;10.40;99.90
16810;DHT22;51744;50.872;4.730;2023-03-24T06:40:46;10.40;99.90
16810;DHT22;51744;50.872;4.730;2023-03-24T06:43:33;10.50;99.90
16810;DHT22;51744;50.872;4.730;2023-03-24T06:46:21;10.60;99.90
16810;DHT22;51744;50.872;4.730;2023-03-24T06:49:08;10.70;99.90
16810;DHT22;51744;50.872;4.730;2023-03-24T06:51:57;10.80;99.90
16810;DHT22;51744;50.872;4.730;2023-03-24T06:54:46;10.80;99.90
16810;DHT22;51744;50.872;4.730;2023-03-24T06:57:34;10.90;99.90
16810;DHT22;51744;50.872;4.730;2023-03-24T07:00:42;10.90;99.90
16810;DHT22;51744;50.872;4.730;2023-03-24T07:03:42;10.90;99.90
16810;DHT22;51744;50.872;4.730;2023-03-24T07:06:48;10.90;99.90
16810;DHT22;51744;50.872;4.730;2023-03-24T07:09:56;10.90;99.90
16810;DHT22;51744;50.872;4.730;2023-03-24T07:12:44;10.80;99.90
16810;DHT22;51744;50.872;4.730;2023-03-24T07:15:32;10.80;99.90
16810;DHT22;51744;50.872;4.730;2023-03-24T07:18:21;10.80;99.90
16810;DHT22;51744;50.872;4.730;2023-03-24T07:21:14;10.80;99.90
16810;DHT22;51744;50.872;4.730;2023-03-24T07:24:07;10.80;99.90
16810;DHT22;51744;50.872;4.730;2023-03-24T07:27:13;10.90;99.90
16810;DHT22;51744;50.872;4.730;2023-03-24T07:30:00;11.10;99.90
16810;DHT22;51744;50.872;4.730;2023-03-24T07:32:58;11.20;99.90
16810;DHT22;51744;50.872;4.730;2023-03-24T07:35:47;11.20;99.90
16810;DHT22;51744;50.872;4.730;2023-03-24T07:38:35;11.30;99.90
16810;DHT22;51744;50.872;4.730;2023-03-24T07:41:26;11.40;99.90
16810;DHT22;51744;50.872;4.730;2023-03-24T07:44:19;11.40;99.90
16810;DHT22;51744;50.872;4.730;2023-03-24T07:47:09;11.40;99.90
16810;DHT22;51744;50.872;4.730;2023-03-24T07:49:56;11.30;99.90
16810;DHT22;51744;50.872;4.730;2023-03-24T07:52:46;11.30;99.90
16810;DHT22;51744;50.872;4.730;2023-03-24T07:55:36;11.40;99.90
16810;DHT22;51744;50.872;4.730;2023-03-24T07:58:39;11.40;99.90
16810;DHT22;51744;50.872;4.730;2023-03-24T08:02:01;11.40;99.90
16810;DHT22;51744;50.872;4.730;2023-03-24T08:05:06;11.50;99.90
16810;DHT22;51744;50.872;4.730;2023-03-24T08:08:02;11.50;99.90
16810;DHT22;51744;50.872;4.730;2023-03-24T08:10:56;11.50;99.90
16810;DHT22;51744;50.872;4.730;2023-03-24T08:13:43;11.50;99.90
16810;DHT22;51744;50.872;4.730;2023-03-24T08:16:31;11.50;99.90
16810;DHT22;51744;50.872;4.730;2023-03-24T08:19:21;11.50;99.90
16810;DHT22;51744;50.872;4.730;2023-03-24T08:22:08;11.50;99.90
16810;DHT22;51744;50.872;4.730;2023-03-24T08:24:56;11.70;99.90
16810;DHT22;51744;50.872;4.730;2023-03-24T08:27:44;11.90;99.90
16810;DHT22;51744;50.872;4.730;2023-03-24T08:30:32;12.10;99.90
16810;DHT22;51744;50.872;4.730;2023-03-24T08:33:20;12.40;99.90
16810;DHT22;51744;50.872;4.730;2023-03-24T08:36:11;12.60;99.90
16810;DHT22;51744;50.872;4.730;2023-03-24T08:38:58;12.80;99.90
16810;DHT22;51744;50.872;4.730;2023-03-24T08:41:46;12.90;99.90
16810;DHT22;51744;50.872;4.730;2023-03-24T08:44:34;13.20;99.90
16810;DHT22;51744;50.872;4.730;2023-03-24T08:47:21;13.30;99.90
16810;DHT22;51744;50.872;4.730;2023-03-24T08:50:09;13.30;99.90
16810;DHT22;51744;50.872;4.730;2023-03-24T08:52:59;13.50;99.90
16810;DHT22;51744;50.872;4.730;2023-03-24T08:55:47;13.20;99.90
16810;DHT22;51744;50.872;4.730;2023-03-24T08:58:35;13.10;99.90
16810;DHT22;51744;50.872;4.730;2023-03-24T09:01:23;12.70;99.90
16810;DHT22;51744;50.872;4.730;2023-03-24T09:04:10;12.70;99.90
16810;DHT22;51744;50.872;4.730;2023-03-24T09:06:58;12.50;99.90
16810;DHT22;51744;50.872;4.730;2023-03-24T09:09:49;12.90;99.90
16810;DHT22;51744;50.872;4.730;2023-03-24T09:12:37;13.40;99.90
16810;DHT22;51744;50.872;4.730;2023-03-24T09:15:24;13.70;99.90
16810;DHT22;51744;50.872;4.730;2023-03-24T09:18:12;14.00;99.90
16810;DHT22;51744;50.872;4.730;2023-03-24T09:20:59;14.50;99.90
16810;DHT22;51744;50.872;4.730;2023-03-24T09:23:47;14.70;99.90
16810;DHT22;51744;50.872;4.730;2023-03-24T09:26:36;14.80;99.90
16810;DHT22;51744;50.872;4.730;2023-03-24T09:29:24;14.80;99.90
16810;DHT22;51744;50.872;4.730;2023-03-24T09:32:11;15.20;99.90
16810;DHT22;51744;50.872;4.730;2023-03-24T09:34:59;15.20;99.90
16810;DHT22;51744;50.872;4.730;2023-03-24T09:37:47;14.80;99.90
16810;DHT22;51744;50.872;4.730;2023-03-24T09:40:36;14.50;99.90
16810;DHT22;51744;50.872;4.730;2023-03-24T09:43:31;14.00;99.90
16810;DHT22;51744;50.872;4.730;2023-03-24T09:46:27;13.80;99.90
16810;DHT22;51744;50.872;4.730;2023-03-24T09:49:22;13.90;99.90
16810;DHT22;51744;50.872;4.730;2023-03-24T09:52:12;14.00;99.90
16810;DHT22;51744;50.872;4.730;2023-03-24T09:55:00;14.10;99.90
16810;DHT22;51744;50.872;4.730;2023-03-24T09:57:48;14.10;99.90
16810;DHT22;51744;50.872;4.730;2023-03-24T10:00:39;14.10;99.90
16810;DHT22;51744;50.872;4.730;2023-03-24T10:03:27;14.00;99.90
16810;DHT22;51744;50.872;4.730;2023-03-24T10:06:19;14.20;99.90
16810;DHT22;51744;50.872;4.730;2023-03-24T10:09:19;15.20;99.90
16810;DHT22;51744;50.872;4.730;2023-03-24T10:12:16;15.70;99.90
16810;DHT22;51744;50.872;4.730;2023-03-24T10:15:16;15.20;99.90
16810;DHT22;51744;50.872;4.730;2023-03-24T10:18:29;14.80;99.90
16810;DHT22;51744;50.872;4.730;2023-03-24T10:21:21;14.40;99.90
16810;DHT22;51744;50.872;4.730;2023-03-24T10:24:19;14.60;99.90
16810;DHT22;51744;50.872;4.730;2023-03-24T10:27:16;14.80;99.90
16810;DHT22;51744;50.872;4.730;2023-03-24T10:30:13;14.80;99.90
16810;DHT22;51744;50.872;4.730;2023-03-24T10:33:02;14.30;99.90
16810;DHT22;51744;50.872;4.730;2023-03-24T10:35:57;14.00;99.90
16810;DHT22;51744;50.872;4.730;2023-03-24T10:38:47;13.70;99.90
16810;DHT22;51744;50.872;4.730;2023-03-24T10:41:35;13.60;99.90
16810;DHT22;51744;50.872;4.730;2023-03-24T10:44:23;13.60;99.90
16810;DHT22;51744;50.872;4.730;2023-03-24T10:47:13;13.50;99.90
16810;DHT22;51744;50.872;4.730;2023-03-24T10:50:05;13.90;99.90
16810;DHT22;51744;50.872;4.730;2023-03-24T10:52:59;14.40;99.90
16810;DHT22;51744;50.872;4.730;2023-03-24T10:55:47;14.50;99.90
16810;DHT22;51744;50.872;4.730;2023-03-24T10:58:37;14.70;99.90
16810;DHT22;51744;50.872;4.730;2023-03-24T11:01:28;15.30;99.90
16810;DHT22;51744;50.872;4.730;2023-03-24T11:04:17;15.70;99.90
16810;DHT22;51744;50.872;4.730;2023-03-24T11:07:13;17.20;99.90
16810;DHT22;51744;50.872;4.730;2023-03-24T11:10:13;18.00;99.90
16810;DHT22;51744;50.872;4.730;2023-03-24T11:13:02;17.40;99.90
16810;DHT22;51744;50.872;4.730;2023-03-24T11:15:55;17.60;99.90
16810;DHT22;51744;50.872;4.730;2023-03-24T11:18:55;17.10;99.90
16810;DHT22;51744;50.872;4.730;2023-03-24T11:21:43;16.20;99.90
16810;DHT22;51744;50.872;4.730;2023-03-24T11:24:35;16.90;99.90
16810;DHT22;51744;50.872;4.730;2023-03-24T11:27:24;16.40;99.90
16810;DHT22;51744;50.872;4.730;2023-03-24T11:30:12;15.80;99.90
16810;DHT22;51744;50.872;4.730;2023-03-24T11:33:02;15.40;99.90
16810;DHT22;51744;50.872;4.730;2023-03-24T11:35:50;15.30;99.90
16810;DHT22;51744;50.872;4.730;2023-03-24T11:38:58;15.20;99.90
16810;DHT22;51744;50.872;4.730;2023-03-24T11:42:13;15.20;99.90
16810;DHT22;51744;50.872;4.730;2023-03-24T11:45:19;15.00;99.90
16810;DHT22;51744;50.872;4.730;2023-03-24T11:48:15;15.40;99.90
16810;DHT22;51744;50.872;4.730;2023-03-24T11:51:08;16.20;99.90
16810;DHT22;51744;50.872;4.730;2023-03-24T11:53:59;15.90;99.90
16810;DHT22;51744;50.872;4.730;2023-03-24T11:56:51;15.70;99.90
16810;DHT22;51744;50.872;4.730;2023-03-24T11:59:43;15.90;99.90
16810;DHT22;51744;50.872;4.730;2023-03-24T12:02:44;16.10;99.90
16810;DHT22;51744;50.872;4.730;2023-03-24T12:05:38;16.10;99.90
16810;DHT22;51744;50.872;4.730;2023-03-24T12:08:47;16.00;99.90
16810;DHT22;51744;50.872;4.730;2023-03-24T12:11:47;16.10;99.90
16810;DHT22;51744;50.872;4.730;2023-03-24T12:14:46;15.90;99.90
16810;DHT22;51744;50.872;4.730;2023-03-24T12:17:40;15.80;99.90
16810;DHT22;51744;50.872;4.730;2023-03-24T12:20:30;15.80;99.90
16810;DHT22;51744;50.872;4.730;2023-03-24T12:23:27;15.30;99.90
16810;DHT22;51744;50.872;4.730;2023-03-24T12:26:20;14.90;99.90
16810;DHT22;51744;50.872;4.730;2023-03-24T12:29:26;14.60;99.90
16810;DHT22;51744;50.872;4.730;2023-03-24T12:32:46;14.50;99.90
16810;DHT22;51744;50.872;4.730;2023-03-24T12:35:45;14.80;99.90
16810;DHT22;51744;50.872;4.730;2023-03-24T12:38:45;15.10;99.90
16810;DHT22;51744;50.872;4.730;2023-03-24T12:45:20;15.40;99.90
16810;DHT22;51744;50.872;4.730;2023-03-24T12:48:23;15.60;99.90
16810;DHT22;51744;50.872;4.730;2023-03-24T12:51:21;15.70;99.90
16810;DHT22;51744;50.872;4.730;2023-03-24T12:54:19;15.20;99.90
16810;DHT22;51744;50.872;4.730;2023-03-24T12:57:11;15.20;99.90
16810;DHT22;51744;50.872;4.730;2023-03-24T13:00:03;15.30;99.90
16810;DHT22;51744;50.872;4.730;2023-03-24T13:02:57;15.50;99.90
16810;DHT22;51744;50.872;4.730;2023-03-24T13:05:49;15.50;99.90
16810;DHT22;51744;50.872;4.730;2023-03-24T13:08:39;15.50;99.90
16810;DHT22;51744;50.872;4.730;2023-03-24T13:11:40;15.60;99.90
16810;DHT22;51744;50.872;4.730;2023-03-24T13:14:36;15.50;99.90
16810;DHT22;51744;50.872;4.730;2023-03-24T13:17:28;15.10;99.90
16810;DHT22;51744;50.872;4.730;2023-03-24T13:20:23;14.90;99.90
16810;DHT22;51744;50.872;4.730;2023-03-24T13:23:28;14.60;99.90
16810;DHT22;51744;50.872;4.730;2023-03-24T13:26:25;14.40;99.90
16810;DHT22;51744;50.872;4.730;2023-03-24T13:29:24;14.40;99.90
16810;DHT22;51744;50.872;4.730;2023-03-24T13:32:34;14.30;99.90
16810;DHT22;51744;50.872;4.730;2023-03-24T13:35:35;14.10;99.90
16810;DHT22;51744;50.872;4.730;2023-03-24T13:38:32;13.90;99.90
16810;DHT22;51744;50.872;4.730;2023-03-24T13:41:23;13.30;99.90
16810;DHT22;51744;50.872;4.730;2023-03-24T13:44:18;12.70;99.90
16810;DHT22;51744;50.872;4.730;2023-03-24T13:47:11;12.40;99.90
16810;DHT22;51744;50.872;4.730;2023-03-24T13:50:01;12.10;99.90
16810;DHT22;51744;50.872;4.730;2023-03-24T13:52:50;12.10;99.90
16810;DHT22;51744;50.872;4.730;2023-03-24T13:55:45;12.10;99.90
16810;DHT22;51744;50.872;4.730;2023-03-24T14:02:20;12.80;99.90
16810;DHT22;51744;50.872;4.730;2023-03-24T14:05:10;12.80;99.90
16810;DHT22;51744;50.872;4.730;2023-03-24T14:08:15;13.10;99.90
16810;DHT22;51744;50.872;4.730;2023-03-24T14:11:08;13.40;99.90
16810;DHT22;51744;50.872;4.730;2023-03-24T14:14:04;13.40;99.90
16810;DHT22;51744;50.872;4.730;2023-03-24T14:17:10;13.50;99.90
16810;DHT22;51744;50.872;4.730;2023-03-24T14:20:15;13.40;99.90
16810;DHT22;51744;50.872;4.730;2023-03-24T14:23:22;13.30;99.90
16810;DHT22;51744;50.872;4.730;2023-03-24T14:26:14;13.20;99.90
16810;DHT22;51744;50.872;4.730;2023-03-24T14:29:02;13.10;99.90
16810;DHT22;51744;50.872;4.730;2023-03-24T14:31:58;13.20;99.90
16810;DHT22;51744;50.872;4.730;2023-03-24T14:35:16;13.20;99.90
16810;DHT22;51744;50.872;4.730;2023-03-24T14:38:22;13.10;99.90
16810;DHT22;51744;50.872;4.730;2023-03-24T14:41:15;13.10;99.90
16810;DHT22;51744;50.872;4.730;2023-03-24T14:44:02;12.90;99.90
16810;DHT22;51744;50.872;4.730;2023-03-24T14:46:49;12.90;99.90
16810;DHT22;51744;50.872;4.730;2023-03-24T14:49:41;13.10;99.90
16810;DHT22;51744;50.872;4.730;2023-03-24T14:52:33;13.20;99.90
16810;DHT22;51744;50.872;4.730;2023-03-24T14:55:25;13.40;99.90
16810;DHT22;51744;50.872;4.730;2023-03-24T14:58:19;13.70;99.90
16810;DHT22;51744;50.872;4.730;2023-03-24T15:01:08;14.00;99.90
16810;DHT22;51744;50.872;4.730;2023-03-24T15:04:00;14.00;99.90
16810;DHT22;51744;50.872;4.730;2023-03-24T15:06:52;14.10;99.90
16810;DHT22;51744;50.872;4.730;2023-03-24T15:09:47;14.00;99.90
16810;DHT22;51744;50.872;4.730;2023-03-24T15:12:36;13.80;99.90
16810;DHT22;51744;50.872;4.730;2023-03-24T15:15:25;13.60;99.90
16810;DHT22;51744;50.872;4.730;2023-03-24T15:18:15;13.70;99.90
16810;DHT22;51744;50.872;4.730;2023-03-24T15:21:13;14.00;99.90
16810;DHT22;51744;50.872;4.730;2023-03-24T15:24:26;14.00;99.90
16810;DHT22;51744;50.872;4.730;2023-03-24T15:27:21;14.30;99.90
16810;DHT22;51744;50.872;4.730;2023-03-24T15:30:13;14.50;99.90
16810;DHT22;51744;50.872;4.730;2023-03-24T15:33:01;14.40;99.90
16810;DHT22;51744;50.872;4.730;2023-03-24T15:35:54;14.30;99.90
16810;DHT22;51744;50.872;4.730;2023-03-24T15:38:45;14.30;99.90
16810;DHT22;51744;50.872;4.730;2023-03-24T15:41:33;14.30;99.90
16810;DHT22;51744;50.872;4.730;2023-03-24T15:44:24;14.40;99.90
16810;DHT22;51744;50.872;4.730;2023-03-24T15:47:16;14.50;99.90
16810;DHT22;51744;50.872;4.730;2023-03-24T15:50:30;14.50;99.90
16810;DHT22;51744;50.872;4.730;2023-03-24T15:53:24;14.40;99.90
16810;DHT22;51744;50.872;4.730;2023-03-24T15:56:18;14.40;99.90
16810;DHT22;51744;50.872;4.730;2023-03-24T15:59:12;14.40;99.90
16810;DHT22;51744;50.872;4.730;2023-03-24T16:02:03;14.20;99.90
16810;DHT22;51744;50.872;4.730;2023-03-24T16:04:54;14.10;99.90
16810;DHT22;51744;50.872;4.730;2023-03-24T16:07:57;13.90;99.90
16810;DHT22;51744;50.872;4.730;2023-03-24T16:10:56;13.90;99.90
16810;DHT22;51744;50.872;4.730;2023-03-24T16:13:44;14.00;99.90
16810;DHT22;51744;50.872;4.730;2023-03-24T16:16:35;14.00;99.90
16810;DHT22;51744;50.872;4.730;2023-03-24T16:19:25;13.90;99.90
16810;DHT22;51744;50.872;4.730;2023-03-24T16:22:13;13.80;99.90
16810;DHT22;51744;50.872;4.730;2023-03-24T16:25:00;13.70;99.90
16810;DHT22;51744;50.872;4.730;2023-03-24T16:27:48;13.50;99.90
16810;DHT22;51744;50.872;4.730;2023-03-24T16:30:38;13.50;99.90
16810;DHT22;51744;50.872;4.730;2023-03-24T16:33:26;13.40;99.90
16810;DHT22;51744;50.872;4.730;2023-03-24T16:36:16;13.40;99.90
16810;DHT22;51744;50.872;4.730;2023-03-24T16:39:13;13.40;99.90
16810;DHT22;51744;50.872;4.730;2023-03-24T16:42:02;13.50;99.90
16810;DHT22;51744;50.872;4.730;2023-03-24T16:44:49;13.50;99.90
16810;DHT22;51744;50.872;4.730;2023-03-24T16:47:37;13.50;99.90
16810;DHT22;51744;50.872;4.730;2023-03-24T16:50:28;13.50;99.90
16810;DHT22;51744;50.872;4.730;2023-03-24T16:53:19;13.40;99.90
16810;DHT22;51744;50.872;4.730;2023-03-24T16:56:07;13.50;99.90
16810;DHT22;51744;50.872;4.730;2023-03-24T16:58:55;13.50;99.90
16810;DHT22;51744;50.872;4.730;2023-03-24T17:01:45;13.40;99.90
16810;DHT22;51744;50.872;4.730;2023-03-24T17:04:34;13.30;99.90
16810;DHT22;51744;50.872;4.730;2023-03-24T17:07:22;13.30;99.90
16810;DHT22;51744;50.872;4.730;2023-03-24T17:10:10;13.20;99.90
16810;DHT22;51744;50.872;4.730;2023-03-24T17:12:57;13.20;99.90
16810;DHT22;51744;50.872;4.730;2023-03-24T17:15:47;13.10;99.90
16810;DHT22;51744;50.872;4.730;2023-03-24T17:18:34;13.10;99.90
16810;DHT22;51744;50.872;4.730;2023-03-24T17:21:24;13.00;99.90
16810;DHT22;51744;50.872;4.730;2023-03-24T17:24:12;13.00;99.90
16810;DHT22;51744;50.872;4.730;2023-03-24T17:27:00;12.80;99.90
16810;DHT22;51744;50.872;4.730;2023-03-24T17:29:48;12.60;99.90
16810;DHT22;51744;50.872;4.730;2023-03-24T17:32:35;12.20;99.90
16810;DHT22;51744;50.872;4.730;2023-03-24T17:35:23;11.90;99.90
16810;DHT22;51744;50.872;4.730;2023-03-24T17:38:12;11.50;99.90
16810;DHT22;51744;50.872;4.730;2023-03-24T17:41:02;11.10;99.90
16810;DHT22;51744;50.872;4.730;2023-03-24T17:43:52;10.60;99.90
16810;DHT22;51744;50.872;4.730;2023-03-24T17:46:39;10.40;99.90
16810;DHT22;51744;50.872;4.730;2023-03-24T17:49:26;10.20;99.90
16810;DHT22;51744;50.872;4.730;2023-03-24T17:52:14;10.10;99.90
16810;DHT22;51744;50.872;4.730;2023-03-24T17:55:02;10.10;99.90
16810;DHT22;51744;50.872;4.730;2023-03-24T17:57:51;10.00;99.90
16810;DHT22;51744;50.872;4.730;2023-03-24T18:00:40;10.00;99.90
16810;DHT22;51744;50.872;4.730;2023-03-24T18:03:27;10.10;99.90
16810;DHT22;51744;50.872;4.730;2023-03-24T18:06:16;10.10;99.90
16810;DHT22;51744;50.872;4.730;2023-03-24T18:09:03;10.10;99.90
16810;DHT22;51744;50.872;4.730;2023-03-24T18:11:51;10.20;99.90
16810;DHT22;51744;50.872;4.730;2023-03-24T18:14:38;10.20;99.90
16810;DHT22;51744;50.872;4.730;2023-03-24T18:17:27;10.20;99.90
16810;DHT22;51744;50.872;4.730;2023-03-24T18:20:15;10.20;99.90
16810;DHT22;51744;50.872;4.730;2023-03-24T18:23:02;10.10;99.90
16810;DHT22;51744;50.872;4.730;2023-03-24T18:25:56;10.10;99.90
16810;DHT22;51744;50.872;4.730;2023-03-24T18:28:44;10.10;99.90
16810;DHT22;51744;50.872;4.730;2023-03-24T18:31:32;10.10;99.90